createdAt,value
2022-11-10T00:00:23.988Z,4.40
2022-11-10T00:02:52.072Z,5.77
2022-11-10T00:05:20.281Z,5.07
2022-11-10T00:07:48.471Z,4.40
2022-11-10T00:10:18.511Z,4.80
2022-11-10T00:12:47.363Z,4.03
2022-11-10T00:15:33.171Z,3.80
2022-11-10T00:18:03.370Z,3.77
2022-11-10T00:20:32.073Z,3.50
2022-11-10T00:23:00.278Z,3.60
2022-11-10T00:25:33.298Z,3.30
2022-11-10T00:28:01.546Z,3.43
2022-11-10T00:30:29.709Z,3.77
2022-11-10T00:32:57.821Z,3.93
2022-11-10T00:35:26.006Z,4.20
2022-11-10T00:37:54.106Z,3.60
2022-11-10T00:40:23.035Z,3.00
2022-11-10T00:42:52.599Z,3.00
2022-11-10T00:45:20.738Z,3.30
2022-11-10T00:47:48.984Z,3.37
2022-11-10T00:50:17.239Z,3.20
2022-11-10T00:52:45.373Z,3.47
2022-11-10T00:55:13.527Z,3.50
2022-11-10T00:57:41.715Z,3.00
2022-11-10T01:00:12.505Z,2.53
2022-11-10T01:02:40.786Z,3.30
2022-11-10T01:05:09.663Z,2.90
2022-11-10T01:07:37.772Z,2.50
2022-11-10T01:10:07.046Z,2.87
2022-11-10T01:12:35.208Z,2.90
2022-11-10T01:15:03.499Z,3.50
2022-11-10T01:17:33.414Z,2.47
2022-11-10T01:20:01.545Z,3.50
2022-11-10T01:22:29.786Z,2.90
2022-11-10T01:24:59.063Z,2.93
2022-11-10T01:27:27.197Z,2.60
2022-11-10T01:29:55.327Z,2.90
2022-11-10T01:32:23.484Z,3.60
2022-11-10T01:34:53.122Z,3.30
2022-11-10T01:37:21.342Z,3.80
2022-11-10T01:39:49.616Z,2.90
2022-11-10T01:42:24.826Z,3.07
2022-11-10T01:45:30.571Z,2.87
2022-11-10T01:48:03.788Z,2.60
2022-11-10T01:50:38.942Z,2.73
2022-11-10T01:53:10.828Z,2.67
2022-11-10T01:55:42.939Z,2.53
2022-11-10T01:58:13.738Z,2.40
2022-11-10T02:00:41.968Z,2.73
2022-11-10T02:03:14.952Z,3.63
2022-11-10T02:05:45.222Z,2.63
2022-11-10T02:08:16.567Z,2.20
2022-11-10T02:10:45.094Z,2.70
2022-11-10T02:13:13.778Z,2.57
2022-11-10T02:15:41.895Z,2.23
2022-11-10T02:18:10.258Z,2.70
2022-11-10T02:20:38.392Z,2.60
2022-11-10T02:23:16.079Z,1.70
2022-11-10T02:25:44.261Z,1.83
2022-11-10T02:28:12.325Z,3.10
2022-11-10T02:30:40.489Z,2.30
2022-11-10T02:33:08.582Z,2.50
2022-11-10T02:35:36.720Z,1.80
2022-11-10T02:38:04.852Z,2.50
2022-11-10T02:40:34.436Z,2.63
2022-11-10T02:43:02.705Z,2.80
2022-11-10T02:45:30.927Z,2.70
2022-11-10T02:47:59.219Z,2.93
2022-11-10T02:50:27.547Z,2.57
2022-11-10T02:52:55.651Z,2.13
2022-11-10T02:55:23.802Z,2.47
2022-11-10T02:57:53.355Z,2.40
2022-11-10T03:00:21.527Z,2.27
2022-11-10T03:02:49.684Z,2.00
2022-11-10T03:05:18.062Z,1.70
2022-11-10T03:07:46.176Z,2.20
2022-11-10T03:10:14.317Z,2.47
2022-11-10T03:12:42.433Z,2.63
2022-11-10T03:15:13.015Z,2.20
2022-11-10T03:17:41.493Z,2.13
2022-11-10T03:20:10.655Z,1.70
2022-11-10T03:22:39.442Z,2.50
2022-11-10T03:25:08.198Z,2.43
2022-11-10T03:27:36.322Z,1.83
2022-11-10T03:30:04.944Z,2.67
2022-11-10T03:32:34.984Z,3.10
2022-11-10T03:35:03.201Z,2.00
2022-11-10T03:37:31.345Z,1.80
2022-11-10T03:39:59.514Z,2.17
2022-11-10T03:42:27.675Z,1.90
2022-11-10T03:44:55.837Z,2.10
2022-11-10T03:47:23.998Z,3.57
2022-11-10T03:49:53.516Z,2.00
2022-11-10T03:52:21.687Z,2.50
2022-11-10T03:54:49.813Z,1.97
2022-11-10T03:57:17.930Z,3.03
2022-11-10T03:59:46.080Z,3.30
2022-11-10T04:02:14.253Z,3.60
2022-11-10T04:04:59.706Z,3.40
2022-11-10T04:07:46.751Z,2.20
2022-11-10T04:10:17.776Z,2.10
2022-11-10T04:13:03.315Z,2.10
2022-11-10T04:15:43.570Z,2.20
2022-11-10T04:18:29.814Z,2.17
2022-11-10T04:20:59.478Z,2.03
2022-11-10T04:23:35.046Z,1.97
2022-11-10T04:26:22.352Z,2.50
2022-11-10T04:28:52.350Z,2.77
2022-11-10T04:31:21.994Z,1.93
2022-11-10T04:33:50.994Z,2.27
2022-11-10T04:36:21.264Z,2.30
2022-11-10T04:38:50.947Z,1.90
2022-11-10T04:41:19.670Z,2.13
2022-11-10T04:43:47.826Z,2.43
2022-11-10T04:46:23.183Z,2.40
2022-11-10T04:48:51.593Z,2.97
2022-11-10T04:51:20.798Z,2.70
2022-11-10T04:53:50.326Z,2.30
2022-11-10T04:56:19.807Z,2.40
2022-11-10T04:58:48.716Z,2.50
2022-11-10T05:01:19.708Z,3.37
2022-11-10T05:03:49.003Z,3.27
2022-11-10T05:06:18.354Z,3.50
2022-11-10T05:08:47.453Z,2.80
2022-11-10T05:11:17.193Z,3.30
2022-11-10T05:13:46.613Z,3.40
2022-11-10T05:16:14.997Z,4.20
2022-11-10T05:18:43.540Z,3.90
2022-11-10T05:21:11.674Z,3.50
2022-11-10T05:23:39.884Z,5.40
2022-11-10T05:26:09.514Z,4.73
2022-11-10T05:28:39.753Z,4.70
2022-11-10T05:31:08.357Z,4.47
2022-11-10T05:33:37.804Z,4.57
2022-11-10T05:36:07.583Z,4.70
2022-11-10T05:38:41.874Z,4.23
2022-11-10T05:41:11.671Z,3.63
2022-11-10T05:43:41.408Z,3.50
2022-11-10T05:46:09.867Z,4.30
2022-11-10T05:48:38.011Z,3.30
2022-11-10T05:51:06.549Z,2.63
2022-11-10T05:53:34.687Z,2.43
2022-11-10T05:56:03.236Z,3.30
2022-11-10T05:58:31.391Z,3.07
2022-11-10T06:01:01.031Z,2.90
2022-11-10T06:03:29.390Z,3.10
2022-11-10T06:05:58.201Z,2.43
2022-11-10T06:08:26.321Z,2.30
2022-11-10T06:10:54.657Z,2.63
2022-11-10T06:13:23.349Z,2.30
2022-11-10T06:15:51.777Z,2.37
2022-11-10T06:18:21.307Z,3.00
2022-11-10T06:20:49.499Z,3.77
2022-11-10T06:23:17.632Z,3.00
2022-11-10T06:25:45.935Z,2.73
2022-11-10T06:28:14.900Z,2.30
2022-11-10T06:30:43.156Z,2.30
2022-11-10T06:33:11.429Z,4.10
2022-11-10T06:35:43.995Z,4.00
2022-11-10T06:38:14.196Z,5.73
2022-11-10T06:40:45.790Z,5.30
2022-11-10T06:43:13.903Z,5.93
2022-11-10T06:45:42.107Z,5.10
2022-11-10T06:48:13.411Z,4.57
2022-11-10T06:50:43.062Z,4.03
2022-11-10T06:53:11.315Z,4.83
2022-11-10T06:55:39.415Z,4.60
2022-11-10T06:58:07.661Z,4.17
2022-11-10T07:00:35.752Z,3.90
2022-11-10T07:03:05.608Z,3.20
2022-11-10T07:05:35.209Z,3.07
2022-11-10T07:08:05.411Z,3.83
2022-11-10T07:10:34.397Z,3.27
2022-11-10T07:13:04.349Z,3.30
2022-11-10T07:15:33.642Z,3.77
2022-11-10T07:18:02.601Z,4.60
2022-11-10T07:20:31.078Z,4.77
2022-11-10T07:23:00.821Z,3.20
2022-11-10T07:25:32.432Z,2.87
2022-11-10T07:28:02.165Z,2.80
2022-11-10T07:30:32.474Z,3.90
2022-11-10T07:33:02.386Z,3.10
2022-11-10T07:35:31.594Z,3.13
2022-11-10T07:38:02.864Z,2.77
2022-11-10T07:40:32.663Z,3.10
2022-11-10T07:43:01.414Z,2.73
2022-11-10T07:45:30.143Z,3.33
2022-11-10T07:48:03.450Z,4.13
2022-11-10T07:50:32.136Z,3.10
2022-11-10T07:53:08.233Z,2.93
2022-11-10T07:55:39.718Z,5.93
2022-11-10T07:58:08.416Z,3.80
2022-11-10T08:00:38.239Z,3.43
2022-11-10T08:03:08.516Z,3.93
2022-11-10T08:05:37.179Z,2.50
2022-11-10T08:08:06.058Z,2.53
2022-11-10T08:10:35.985Z,2.80
2022-11-10T08:13:07.553Z,2.60
2022-11-10T08:15:36.669Z,3.30
2022-11-10T08:18:06.372Z,3.20
2022-11-10T08:20:34.835Z,4.90
2022-11-10T08:23:05.006Z,2.80
2022-11-10T08:25:35.690Z,2.60
2022-11-10T08:28:07.357Z,2.50
2022-11-10T08:30:36.142Z,2.07
2022-11-10T08:33:06.115Z,3.33
2022-11-10T08:35:38.154Z,2.40
2022-11-10T08:38:10.716Z,2.47
2022-11-10T08:40:39.138Z,2.60
2022-11-10T08:43:09.434Z,2.20
2022-11-10T08:45:38.638Z,2.40
2022-11-10T08:48:08.878Z,2.17
2022-11-10T08:50:37.086Z,2.50
2022-11-10T08:53:07.083Z,2.47
2022-11-10T08:55:35.559Z,2.43
2022-11-10T08:58:06.528Z,2.57
2022-11-10T09:00:36.635Z,2.67
2022-11-10T09:03:07.635Z,2.40
2022-11-10T09:05:36.844Z,2.50
2022-11-10T09:08:05.980Z,2.37
2022-11-10T09:10:37.182Z,2.20
2022-11-10T09:13:06.587Z,1.90
2022-11-10T09:15:36.445Z,2.10
2022-11-10T09:18:06.240Z,2.00
2022-11-10T09:20:36.345Z,1.90
2022-11-10T09:23:08.663Z,2.50
2022-11-10T09:25:37.102Z,2.03
2022-11-10T09:28:05.662Z,2.13
2022-11-10T09:30:35.174Z,2.10
2022-11-10T09:33:03.298Z,2.40
2022-11-10T09:35:31.462Z,2.00
2022-11-10T09:37:59.667Z,2.30
2022-11-10T09:40:39.877Z,1.93
2022-11-10T09:43:16.253Z,1.77
2022-11-10T09:45:50.704Z,2.33
2022-11-10T09:48:25.622Z,1.83
2022-11-10T09:50:58.393Z,2.03
2022-11-10T09:53:30.253Z,1.90
2022-11-10T09:56:03.143Z,1.70
2022-11-10T09:58:36.501Z,1.80
2022-11-10T10:01:19.423Z,1.67
2022-11-10T10:03:50.365Z,1.90
2022-11-10T10:06:20.288Z,1.77
2022-11-10T10:09:00.337Z,2.40
2022-11-10T10:11:43.047Z,2.00
2022-11-10T10:14:29.860Z,3.87
2022-11-10T10:17:03.654Z,2.30
2022-11-10T10:19:40.830Z,2.50
2022-11-10T10:22:41.364Z,3.87
2022-11-10T10:25:15.277Z,2.33
2022-11-10T10:27:48.058Z,4.67
2022-11-10T10:30:19.818Z,1.93
2022-11-10T10:32:49.529Z,2.07
2022-11-10T10:35:21.230Z,16.63
2022-11-10T10:37:53.360Z,4.50
2022-11-10T10:40:25.855Z,2.60
2022-11-10T10:42:55.091Z,2.00
2022-11-10T10:45:26.613Z,2.20
2022-11-10T10:47:57.962Z,1.87
2022-11-10T10:50:33.678Z,2.63
2022-11-10T10:53:16.959Z,3.60
2022-11-10T10:55:50.409Z,2.27
2022-11-10T10:58:25.830Z,2.20
2022-11-10T11:00:58.362Z,2.23
2022-11-10T11:03:31.129Z,2.07
2022-11-10T11:06:07.959Z,2.43
2022-11-10T11:08:36.104Z,2.60
2022-11-10T11:11:12.527Z,2.23
2022-11-10T11:13:40.844Z,2.20
2022-11-10T11:16:12.494Z,2.60
2022-11-10T11:18:42.193Z,1.63
2022-11-10T11:36:29.612Z,2.67
2022-11-10T11:39:07.542Z,1.90
2022-11-10T11:41:42.089Z,1.60
2022-11-10T11:44:42.579Z,1.80
2022-11-10T11:47:28.820Z,1.57
2022-11-10T11:50:11.779Z,1.80
2022-11-10T11:52:51.010Z,2.13
2022-11-10T11:55:32.795Z,1.90
2022-11-10T11:58:21.975Z,1.60
2022-11-10T12:01:06.423Z,1.77
2022-11-10T12:04:08.616Z,2.03
2022-11-10T12:06:56.918Z,1.80
2022-11-10T12:09:37.270Z,2.77
2022-11-10T12:12:23.029Z,1.70
2022-11-10T12:14:59.481Z,1.77
2022-11-10T12:17:40.796Z,2.57
2022-11-10T12:20:24.938Z,1.80
2022-11-10T12:23:02.597Z,1.30
2022-11-10T12:25:42.645Z,1.90
2022-11-10T12:28:16.551Z,11.97
2022-11-10T12:30:48.300Z,2.13
2022-11-10T12:33:24.421Z,4.73
2022-11-10T12:35:55.549Z,1.87
2022-11-10T12:38:29.366Z,2.67
2022-11-10T12:41:06.149Z,12.20
2022-11-10T12:43:40.647Z,2.20
2022-11-10T12:46:13.247Z,2.37
2022-11-10T12:48:51.522Z,2.50
2022-11-10T12:51:29.609Z,4.03
2022-11-10T12:53:57.875Z,2.73
2022-11-10T12:56:33.247Z,2.30
2022-11-10T12:59:25.874Z,4.00
2022-11-10T13:02:02.432Z,2.20
2022-11-10T13:04:32.029Z,2.90
2022-11-10T13:07:02.655Z,2.63
2022-11-10T13:09:33.029Z,2.77
2022-11-10T13:12:20.238Z,3.07
2022-11-10T13:14:49.101Z,2.63
2022-11-10T13:17:55.303Z,2.67
2022-11-10T13:20:49.534Z,1.90
2022-11-10T13:23:29.104Z,5.07
2022-11-10T13:26:00.024Z,2.50
2022-11-10T13:29:03.861Z,2.50
2022-11-10T13:31:49.885Z,5.93
2022-11-10T13:34:32.903Z,3.40
2022-11-10T13:37:05.232Z,2.53
2022-11-10T13:39:35.816Z,2.97
2022-11-10T13:42:18.629Z,2.67
2022-11-10T13:44:48.635Z,2.93
2022-11-10T13:47:48.785Z,4.33
2022-11-10T13:50:30.051Z,2.90
2022-11-10T13:53:13.225Z,2.97
2022-11-10T13:55:53.545Z,2.60
2022-11-10T13:58:26.884Z,3.43
2022-11-10T14:01:26.217Z,2.93
2022-11-10T14:04:00.568Z,2.77
2022-11-10T14:06:42.091Z,2.90
2022-11-10T14:09:26.943Z,2.70
2022-11-10T14:11:59.441Z,2.80
2022-11-10T14:14:35.003Z,2.87
2022-11-10T14:17:06.010Z,4.77
2022-11-10T14:19:40.905Z,3.00
2022-11-10T14:22:21.934Z,2.77
2022-11-10T14:24:57.631Z,2.97
2022-11-10T14:27:28.715Z,2.33
2022-11-10T14:30:21.818Z,2.20
2022-11-10T14:32:59.351Z,3.23
2022-11-10T14:35:30.190Z,2.80
2022-11-10T14:38:04.454Z,3.17
2022-11-10T14:40:33.290Z,2.60
2022-11-10T14:43:01.544Z,2.60
2022-11-10T14:45:30.242Z,3.07
2022-11-10T14:48:01.467Z,2.87
2022-11-10T14:50:32.386Z,2.90
2022-11-10T14:53:04.109Z,3.37
2022-11-10T14:55:35.262Z,2.90
2022-11-10T14:58:06.432Z,2.23
2022-11-10T15:00:38.023Z,2.90
2022-11-10T15:03:09.566Z,2.70
2022-11-10T15:05:37.867Z,2.83
2022-11-10T15:08:07.107Z,2.70
2022-11-10T15:10:47.866Z,2.30
2022-11-10T15:13:23.031Z,2.30
2022-11-10T15:15:53.676Z,4.70
2022-11-10T15:18:31.235Z,3.40
2022-11-10T15:21:02.673Z,2.67
2022-11-10T15:23:34.027Z,2.90
2022-11-10T15:26:02.287Z,2.90
2022-11-10T15:28:32.601Z,3.27
2022-11-10T15:31:02.639Z,3.57
2022-11-10T15:33:34.937Z,2.60
2022-11-10T15:36:17.309Z,3.10
2022-11-10T15:38:45.597Z,3.27
2022-11-10T15:41:16.260Z,2.40
2022-11-10T15:43:44.428Z,3.23
2022-11-10T15:46:18.084Z,3.90
2022-11-10T15:48:50.115Z,3.20
2022-11-10T15:51:25.836Z,3.20
2022-11-10T15:53:55.573Z,3.47
2022-11-10T15:56:25.426Z,3.20
2022-11-10T15:59:00.783Z,3.00
2022-11-10T16:01:34.671Z,3.40
2022-11-10T16:04:04.354Z,3.30
2022-11-10T16:06:32.709Z,4.50
2022-11-10T16:09:00.928Z,3.27
2022-11-10T16:11:30.481Z,3.20
2022-11-10T16:13:59.130Z,3.87
2022-11-10T16:16:27.376Z,3.50
2022-11-10T16:18:55.511Z,3.90
2022-11-10T16:21:26.626Z,3.70
2022-11-10T16:23:54.831Z,3.40
2022-11-10T16:26:25.386Z,3.37
2022-11-10T16:28:53.594Z,3.10
2022-11-10T16:31:23.122Z,3.40
2022-11-10T16:33:51.587Z,3.67
2022-11-10T16:36:26.864Z,3.73
2022-11-10T16:38:55.977Z,10.33
2022-11-10T16:41:25.203Z,13.43
2022-11-10T16:43:53.365Z,9.63
2022-11-10T16:46:24.221Z,4.60
2022-11-10T16:48:57.692Z,3.40
2022-11-10T16:51:34.929Z,5.07
2022-11-10T16:54:03.929Z,4.63
2022-11-10T16:56:32.157Z,5.23
2022-11-10T16:59:00.581Z,6.93
2022-11-10T17:01:30.925Z,6.77
2022-11-10T17:04:01.363Z,6.10
2022-11-10T17:06:31.488Z,8.00
2022-11-10T17:09:07.450Z,7.87
2022-11-10T17:11:35.741Z,8.37
2022-11-10T17:14:06.454Z,9.03
2022-11-10T17:16:38.903Z,8.47
2022-11-10T17:19:08.864Z,9.40
2022-11-10T17:21:38.648Z,9.67
2022-11-10T17:24:10.984Z,11.67
2022-11-10T17:26:39.213Z,7.20
2022-11-10T17:29:07.426Z,6.43
2022-11-10T17:31:35.676Z,6.27
2022-11-10T17:34:03.809Z,4.70
2022-11-10T17:36:34.364Z,3.80
2022-11-10T17:39:06.283Z,9.90
2022-11-10T17:41:35.711Z,6.00
2022-11-10T17:44:03.952Z,10.33
2022-11-10T17:46:32.100Z,8.60
2022-11-10T17:49:02.953Z,7.70
2022-11-10T17:51:34.371Z,7.00
2022-11-10T17:54:05.014Z,3.73
2022-11-10T17:56:33.857Z,2.80
2022-11-10T17:59:02.325Z,4.33
2022-11-10T18:01:30.598Z,5.20
2022-11-10T18:04:01.257Z,4.10
2022-11-10T18:06:29.473Z,3.37
2022-11-10T18:08:58.494Z,2.87
2022-11-10T18:11:27.998Z,3.83
2022-11-10T18:13:56.331Z,10.00
2022-11-10T18:16:24.467Z,9.03
2022-11-10T18:18:52.666Z,8.80
2022-11-10T18:21:20.783Z,7.77
2022-11-10T18:23:48.939Z,8.20
2022-11-10T18:26:17.069Z,5.10
2022-11-10T18:28:48.646Z,3.07
2022-11-10T18:31:17.728Z,3.87
2022-11-10T18:33:46.060Z,2.90
2022-11-10T18:36:14.285Z,2.70
2022-11-10T18:38:42.521Z,2.27
2022-11-10T18:41:28.396Z,2.80
2022-11-10T18:43:57.955Z,4.20
2022-11-10T18:46:26.099Z,4.33
2022-11-10T18:48:54.284Z,4.83
2022-11-10T18:51:22.446Z,3.37
2022-11-10T18:53:50.653Z,2.63
2022-11-10T18:56:18.769Z,4.50
2022-11-10T18:58:53.713Z,6.63
2022-11-10T19:01:26.704Z,4.37
2022-11-10T19:03:55.039Z,5.50
2022-11-10T19:06:23.143Z,7.03
2022-11-10T19:08:51.669Z,8.80
2022-11-10T19:11:21.092Z,5.47
2022-11-10T19:13:50.125Z,10.43
2022-11-10T19:16:20.020Z,13.57
2022-11-10T19:18:49.514Z,12.43
2022-11-10T19:21:21.863Z,11.80
2022-11-10T19:23:50.814Z,33.37
2022-11-10T19:26:22.923Z,24.67
2022-11-10T19:28:53.344Z,12.70
2022-11-10T19:31:22.904Z,9.93
2022-11-10T19:33:55.031Z,13.90
2022-11-10T19:36:25.362Z,14.40
2022-11-10T19:38:55.098Z,7.67
2022-11-10T19:41:25.269Z,13.70
2022-11-10T19:43:59.147Z,30.17
2022-11-10T19:46:29.153Z,30.93
2022-11-10T19:48:58.934Z,20.37
2022-11-10T19:51:28.633Z,15.70
2022-11-10T19:54:01.383Z,15.33
2022-11-10T19:56:32.038Z,6.43
2022-11-10T19:59:00.546Z,3.70
2022-11-10T20:01:29.395Z,2.80
2022-11-10T20:04:00.918Z,3.30
2022-11-10T20:06:29.078Z,2.93
2022-11-10T20:08:59.546Z,3.73
2022-11-10T20:11:27.960Z,2.73
2022-11-10T20:13:59.134Z,2.40
2022-11-10T20:16:27.747Z,2.60
2022-11-10T20:18:55.886Z,1.90
2022-11-10T20:21:25.450Z,2.23
2022-11-10T20:23:54.742Z,2.40
2022-11-10T20:26:23.292Z,2.00
2022-11-10T20:28:52.074Z,2.37
2022-11-10T20:31:24.841Z,2.90
2022-11-10T20:33:54.989Z,2.80
2022-11-10T20:36:26.958Z,2.53
2022-11-10T20:38:56.643Z,2.60
2022-11-10T20:41:27.283Z,1.83
2022-11-10T20:43:56.133Z,2.47
2022-11-10T20:49:12.620Z,3.17
2022-11-10T20:51:42.645Z,3.63
2022-11-10T20:54:11.044Z,2.87
2022-11-10T20:56:39.171Z,2.93
2022-11-10T20:59:07.269Z,3.40
2022-11-10T21:01:37.639Z,3.43
2022-11-10T21:04:06.835Z,2.80
2022-11-10T21:06:35.198Z,2.60
2022-11-10T21:09:05.469Z,2.60
2022-11-10T21:11:50.584Z,2.30
2022-11-10T21:14:19.091Z,2.50
2022-11-10T21:16:47.260Z,2.30
2022-11-10T21:19:15.469Z,2.10
2022-11-10T21:21:43.609Z,2.53
2022-11-10T21:24:13.500Z,2.03
2022-11-10T21:26:42.022Z,2.00
2022-11-10T21:29:11.609Z,2.40
2022-11-10T21:31:39.733Z,1.80
2022-11-10T21:34:08.042Z,2.20
2022-11-10T21:36:36.220Z,2.03
2022-11-10T21:39:04.528Z,2.13
2022-11-10T21:41:34.157Z,2.27
2022-11-10T21:44:02.333Z,2.47
2022-11-10T21:46:30.657Z,2.40
2022-11-10T21:49:03.140Z,2.07
2022-11-10T21:51:34.459Z,1.93
2022-11-10T21:54:02.573Z,1.80
2022-11-10T21:56:30.728Z,1.90
2022-11-10T21:59:00.709Z,2.20
2022-11-10T22:01:29.226Z,2.50
2022-11-10T22:03:57.529Z,2.63
2022-11-10T22:06:45.685Z,3.00
2022-11-10T22:09:13.858Z,3.40
2022-11-10T22:12:00.015Z,4.00
2022-11-10T22:14:47.095Z,4.17
2022-11-10T22:17:34.670Z,4.07
2022-11-10T22:20:02.758Z,3.80
2022-11-10T22:22:30.962Z,3.23
2022-11-10T22:24:59.092Z,3.10
2022-11-10T22:27:27.538Z,3.07
2022-11-10T22:29:57.218Z,5.63
2022-11-10T22:32:25.376Z,5.47
2022-11-10T22:34:53.518Z,5.00
2022-11-10T22:37:22.590Z,4.03
2022-11-10T22:40:07.910Z,2.60
2022-11-10T22:42:53.381Z,3.17
2022-11-10T22:45:22.901Z,3.07
2022-11-10T22:48:08.547Z,2.30
2022-11-10T22:50:36.684Z,3.27
2022-11-10T22:53:04.816Z,2.20
2022-11-10T22:55:32.982Z,2.77
2022-11-10T22:58:01.144Z,2.50
2022-11-10T23:00:30.841Z,2.23
2022-11-10T23:02:59.006Z,4.13
2022-11-10T23:05:27.158Z,3.10
2022-11-10T23:07:56.412Z,2.80
2022-11-10T23:10:24.488Z,2.23
2022-11-10T23:12:55.168Z,2.20
2022-11-10T23:15:23.826Z,2.40
2022-11-10T23:17:54.906Z,1.80
2022-11-10T23:20:23.117Z,1.77
2022-11-10T23:22:51.233Z,1.90
2022-11-10T23:25:19.421Z,2.03
2022-11-10T23:27:47.655Z,2.03
2022-11-10T23:30:16.082Z,2.00
2022-11-10T23:32:44.222Z,2.43
2022-11-10T23:35:13.739Z,2.00
2022-11-10T23:37:41.931Z,1.90
2022-11-10T23:40:11.099Z,2.23
2022-11-10T23:42:39.198Z,2.20
2022-11-10T23:45:08.762Z,3.10
2022-11-10T23:47:36.910Z,2.20
2022-11-10T23:50:05.434Z,2.00
2022-11-10T23:52:35.301Z,2.43
2022-11-10T23:55:03.391Z,2.00
2022-11-10T23:57:31.560Z,2.67
2022-11-10T23:59:59.723Z,3.37
